sensor_id;sensor_type;location;lat;lon;timestamp;P1;durP1;ratioP1;P2;durP2;ratioP2
20014;SDS011;61787;42.022;23.078;2024-01-30T00:00:42;2.15;;;0.40;;
20014;SDS011;61787;42.022;23.078;2024-01-30T00:01:44;1.52;;;0.22;;
20014;SDS011;61787;42.022;23.078;2024-01-30T00:02:46;0.98;;;0.20;;
20014;SDS011;61787;42.022;23.078;2024-01-30T00:03:47;0.88;;;0.28;;
20014;SDS011;61787;42.022;23.078;2024-01-30T00:04:49;1.48;;;0.17;;
20014;SDS011;61787;42.022;23.078;2024-01-30T00:05:51;1.45;;;0.20;;
20014;SDS011;61787;42.022;23.078;2024-01-30T00:06:52;0.70;;;0.10;;
20014;SDS011;61787;42.022;23.078;2024-01-30T00:07:54;0.85;;;0.10;;
20014;SDS011;61787;42.022;23.078;2024-01-30T00:08:56;2.47;;;0.20;;
20014;SDS011;61787;42.022;23.078;2024-01-30T00:09:57;0.98;;;0.30;;
20014;SDS011;61787;42.022;23.078;2024-01-30T00:10:59;0.70;;;0.10;;
20014;SDS011;61787;42.022;23.078;2024-01-30T00:12:02;1.40;;;0.15;;
20014;SDS011;61787;42.022;23.078;2024-01-30T00:13:03;0.70;;;0.10;;
20014;SDS011;61787;42.022;23.078;2024-01-30T00:14:05;1.13;;;0.32;;
20014;SDS011;61787;42.022;23.078;2024-01-30T00:15:07;1.63;;;0.40;;
20014;SDS011;61787;42.022;23.078;2024-01-30T00:16:20;2.60;;;0.65;;
20014;SDS011;61787;42.022;23.078;2024-01-30T00:17:23;3.70;;;0.75;;
20014;SDS011;61787;42.022;23.078;2024-01-30T00:18:26;3.42;;;1.15;;
20014;SDS011;61787;42.022;23.078;2024-01-30T00:19:28;1.73;;;0.50;;
20014;SDS011;61787;42.022;23.078;2024-01-30T00:20:29;4.90;;;1.52;;
20014;SDS011;61787;42.022;23.078;2024-01-30T00:21:31;2.33;;;0.47;;
20014;SDS011;61787;42.022;23.078;2024-01-30T00:22:33;3.58;;;1.05;;
20014;SDS011;61787;42.022;23.078;2024-01-30T00:23:34;3.05;;;1.48;;
20014;SDS011;61787;42.022;23.078;2024-01-30T00:24:36;2.95;;;1.25;;
20014;SDS011;61787;42.022;23.078;2024-01-30T00:25:37;3.10;;;1.45;;
20014;SDS011;61787;42.022;23.078;2024-01-30T00:26:39;3.50;;;1.40;;
20014;SDS011;61787;42.022;23.078;2024-01-30T00:27:41;3.45;;;1.55;;
20014;SDS011;61787;42.022;23.078;2024-01-30T00:28:42;4.63;;;1.27;;
20014;SDS011;61787;42.022;23.078;2024-01-30T00:29:44;2.65;;;1.30;;
20014;SDS011;61787;42.022;23.078;2024-01-30T00:30:46;5.18;;;1.83;;
20014;SDS011;61787;42.022;23.078;2024-01-30T00:31:47;4.22;;;1.10;;
20014;SDS011;61787;42.022;23.078;2024-01-30T00:32:49;3.42;;;1.60;;
20014;SDS011;61787;42.022;23.078;2024-01-30T00:33:51;3.30;;;1.67;;
20014;SDS011;61787;42.022;23.078;2024-01-30T00:34:53;4.35;;;1.77;;
20014;SDS011;61787;42.022;23.078;2024-01-30T00:35:54;3.60;;;2.05;;
20014;SDS011;61787;42.022;23.078;2024-01-30T00:36:56;3.70;;;1.27;;
20014;SDS011;61787;42.022;23.078;2024-01-30T00:37:58;4.13;;;2.15;;
20014;SDS011;61787;42.022;23.078;2024-01-30T00:38:59;3.63;;;1.35;;
20014;SDS011;61787;42.022;23.078;2024-01-30T00:40:01;4.30;;;1.55;;
20014;SDS011;61787;42.022;23.078;2024-01-30T00:41:03;4.30;;;2.22;;
20014;SDS011;61787;42.022;23.078;2024-01-30T00:42:05;3.60;;;1.42;;
20014;SDS011;61787;42.022;23.078;2024-01-30T00:43:06;3.13;;;1.42;;
20014;SDS011;61787;42.022;23.078;2024-01-30T00:44:08;2.95;;;1.00;;
20014;SDS011;61787;42.022;23.078;2024-01-30T00:45:15;3.50;;;2.00;;
20014;SDS011;61787;42.022;23.078;2024-01-30T00:46:18;4.13;;;1.38;;
20014;SDS011;61787;42.022;23.078;2024-01-30T00:47:19;2.75;;;1.10;;
20014;SDS011;61787;42.022;23.078;2024-01-30T00:48:21;2.58;;;1.20;;
20014;SDS011;61787;42.022;23.078;2024-01-30T00:49:23;4.50;;;1.83;;
20014;SDS011;61787;42.022;23.078;2024-01-30T00:50:24;3.63;;;1.33;;
20014;SDS011;61787;42.022;23.078;2024-01-30T00:51:26;3.17;;;1.00;;
20014;SDS011;61787;42.022;23.078;2024-01-30T00:52:31;4.30;;;1.75;;
20014;SDS011;61787;42.022;23.078;2024-01-30T00:53:34;3.00;;;1.02;;
20014;SDS011;61787;42.022;23.078;2024-01-30T00:54:35;4.18;;;1.63;;
20014;SDS011;61787;42.022;23.078;2024-01-30T00:55:37;2.08;;;1.00;;
20014;SDS011;61787;42.022;23.078;2024-01-30T00:56:39;4.18;;;2.00;;
20014;SDS011;61787;42.022;23.078;2024-01-30T00:57:41;2.25;;;0.90;;
20014;SDS011;61787;42.022;23.078;2024-01-30T00:58:45;2.22;;;0.80;;
20014;SDS011;61787;42.022;23.078;2024-01-30T00:59:47;2.65;;;1.13;;
20014;SDS011;61787;42.022;23.078;2024-01-30T01:00:49;2.60;;;1.15;;
20014;SDS011;61787;42.022;23.078;2024-01-30T01:01:50;3.90;;;1.20;;
20014;SDS011;61787;42.022;23.078;2024-01-30T01:02:52;3.17;;;0.68;;
20014;SDS011;61787;42.022;23.078;2024-01-30T01:03:54;2.30;;;0.85;;
20014;SDS011;61787;42.022;23.078;2024-01-30T01:04:56;3.60;;;0.95;;
20014;SDS011;61787;42.022;23.078;2024-01-30T01:05:57;2.58;;;1.48;;
20014;SDS011;61787;42.022;23.078;2024-01-30T01:06:59;2.50;;;1.13;;
20014;SDS011;61787;42.022;23.078;2024-01-30T01:08:02;3.08;;;1.13;;
20014;SDS011;61787;42.022;23.078;2024-01-30T01:09:03;5.60;;;1.40;;
20014;SDS011;61787;42.022;23.078;2024-01-30T01:10:06;2.28;;;0.68;;
20014;SDS011;61787;42.022;23.078;2024-01-30T01:11:08;3.50;;;0.73;;
20014;SDS011;61787;42.022;23.078;2024-01-30T01:12:09;7.20;;;0.80;;
20014;SDS011;61787;42.022;23.078;2024-01-30T01:13:11;3.45;;;1.23;;
20014;SDS011;61787;42.022;23.078;2024-01-30T01:14:13;3.80;;;1.17;;
20014;SDS011;61787;42.022;23.078;2024-01-30T01:15:14;2.88;;;1.13;;
20014;SDS011;61787;42.022;23.078;2024-01-30T01:16:16;2.22;;;0.95;;
20014;SDS011;61787;42.022;23.078;2024-01-30T01:17:18;4.55;;;1.17;;
20014;SDS011;61787;42.022;23.078;2024-01-30T01:18:19;3.38;;;0.80;;
20014;SDS011;61787;42.022;23.078;2024-01-30T01:19:21;2.58;;;1.20;;
20014;SDS011;61787;42.022;23.078;2024-01-30T01:20:23;4.45;;;1.27;;
20014;SDS011;61787;42.022;23.078;2024-01-30T01:21:25;2.72;;;1.00;;
20014;SDS011;61787;42.022;23.078;2024-01-30T01:22:27;3.08;;;1.00;;
20014;SDS011;61787;42.022;23.078;2024-01-30T01:23:28;4.50;;;1.40;;
20014;SDS011;61787;42.022;23.078;2024-01-30T01:24:33;3.42;;;1.23;;
20014;SDS011;61787;42.022;23.078;2024-01-30T01:25:35;3.22;;;0.82;;
20014;SDS011;61787;42.022;23.078;2024-01-30T01:26:37;4.00;;;1.58;;
20014;SDS011;61787;42.022;23.078;2024-01-30T01:27:38;4.03;;;1.38;;
20014;SDS011;61787;42.022;23.078;2024-01-30T01:28:42;3.28;;;1.02;;
20014;SDS011;61787;42.022;23.078;2024-01-30T01:29:44;4.00;;;1.10;;
20014;SDS011;61787;42.022;23.078;2024-01-30T01:30:46;3.13;;;1.55;;
20014;SDS011;61787;42.022;23.078;2024-01-30T01:31:48;4.03;;;1.35;;
20014;SDS011;61787;42.022;23.078;2024-01-30T01:32:50;6.15;;;1.17;;
20014;SDS011;61787;42.022;23.078;2024-01-30T01:33:56;2.30;;;0.95;;
20014;SDS011;61787;42.022;23.078;2024-01-30T01:34:58;3.53;;;1.30;;
20014;SDS011;61787;42.022;23.078;2024-01-30T01:36:00;3.97;;;1.83;;
20014;SDS011;61787;42.022;23.078;2024-01-30T01:37:04;3.47;;;1.25;;
20014;SDS011;61787;42.022;23.078;2024-01-30T01:38:05;2.88;;;1.00;;
20014;SDS011;61787;42.022;23.078;2024-01-30T01:39:07;2.45;;;1.27;;
20014;SDS011;61787;42.022;23.078;2024-01-30T01:40:09;2.67;;;1.27;;
20014;SDS011;61787;42.022;23.078;2024-01-30T01:41:11;3.67;;;1.50;;
20014;SDS011;61787;42.022;23.078;2024-01-30T01:42:13;4.53;;;1.35;;
20014;SDS011;61787;42.022;23.078;2024-01-30T01:43:14;6.50;;;1.60;;
20014;SDS011;61787;42.022;23.078;2024-01-30T01:44:17;3.53;;;1.30;;
20014;SDS011;61787;42.022;23.078;2024-01-30T01:45:19;4.63;;;1.88;;
20014;SDS011;61787;42.022;23.078;2024-01-30T01:46:22;3.20;;;1.40;;
20014;SDS011;61787;42.022;23.078;2024-01-30T01:47:24;3.65;;;1.27;;
20014;SDS011;61787;42.022;23.078;2024-01-30T01:48:25;2.65;;;0.95;;
20014;SDS011;61787;42.022;23.078;2024-01-30T01:49:28;2.92;;;1.17;;
20014;SDS011;61787;42.022;23.078;2024-01-30T01:50:30;3.72;;;1.35;;
20014;SDS011;61787;42.022;23.078;2024-01-30T01:51:33;3.67;;;1.30;;
20014;SDS011;61787;42.022;23.078;2024-01-30T01:52:37;5.13;;;1.63;;
20014;SDS011;61787;42.022;23.078;2024-01-30T01:53:40;2.67;;;1.10;;
20014;SDS011;61787;42.022;23.078;2024-01-30T01:54:41;3.80;;;1.35;;
20014;SDS011;61787;42.022;23.078;2024-01-30T01:55:45;4.18;;;1.10;;
20014;SDS011;61787;42.022;23.078;2024-01-30T01:56:46;3.88;;;0.98;;
20014;SDS011;61787;42.022;23.078;2024-01-30T01:57:48;3.75;;;1.05;;
20014;SDS011;61787;42.022;23.078;2024-01-30T01:58:51;2.00;;;0.63;;
20014;SDS011;61787;42.022;23.078;2024-01-30T01:59:56;2.95;;;1.40;;
20014;SDS011;61787;42.022;23.078;2024-01-30T02:00:58;2.90;;;0.93;;
20014;SDS011;61787;42.022;23.078;2024-01-30T02:02:00;3.60;;;1.10;;
20014;SDS011;61787;42.022;23.078;2024-01-30T02:03:03;3.83;;;1.15;;
20014;SDS011;61787;42.022;23.078;2024-01-30T02:04:07;2.85;;;0.80;;
20014;SDS011;61787;42.022;23.078;2024-01-30T02:05:09;1.90;;;0.45;;
20014;SDS011;61787;42.022;23.078;2024-01-30T02:06:11;2.33;;;0.68;;
20014;SDS011;61787;42.022;23.078;2024-01-30T02:07:14;2.75;;;0.70;;
20014;SDS011;61787;42.022;23.078;2024-01-30T02:08:16;2.45;;;0.80;;
20014;SDS011;61787;42.022;23.078;2024-01-30T02:09:18;2.88;;;1.33;;
20014;SDS011;61787;42.022;23.078;2024-01-30T02:10:19;2.40;;;0.95;;
20014;SDS011;61787;42.022;23.078;2024-01-30T02:11:22;3.00;;;0.70;;
20014;SDS011;61787;42.022;23.078;2024-01-30T02:12:24;3.35;;;1.10;;
20014;SDS011;61787;42.022;23.078;2024-01-30T02:13:25;4.55;;;0.80;;
20014;SDS011;61787;42.022;23.078;2024-01-30T02:14:27;2.17;;;0.70;;
20014;SDS011;61787;42.022;23.078;2024-01-30T02:15:31;2.35;;;0.68;;
20014;SDS011;61787;42.022;23.078;2024-01-30T02:16:33;2.38;;;0.60;;
20014;SDS011;61787;42.022;23.078;2024-01-30T02:17:34;2.53;;;1.00;;
20014;SDS011;61787;42.022;23.078;2024-01-30T02:18:36;2.20;;;0.85;;
20014;SDS011;61787;42.022;23.078;2024-01-30T02:19:43;1.83;;;0.38;;
20014;SDS011;61787;42.022;23.078;2024-01-30T02:20:45;1.77;;;0.50;;
20014;SDS011;61787;42.022;23.078;2024-01-30T02:21:47;2.03;;;0.52;;
20014;SDS011;61787;42.022;23.078;2024-01-30T02:22:49;1.83;;;0.60;;
20014;SDS011;61787;42.022;23.078;2024-01-30T02:23:52;2.63;;;0.70;;
20014;SDS011;61787;42.022;23.078;2024-01-30T02:24:55;3.00;;;0.75;;
20014;SDS011;61787;42.022;23.078;2024-01-30T02:25:57;2.85;;;0.50;;
20014;SDS011;61787;42.022;23.078;2024-01-30T02:26:59;2.35;;;1.17;;
20014;SDS011;61787;42.022;23.078;2024-01-30T02:28:00;2.50;;;1.15;;
20014;SDS011;61787;42.022;23.078;2024-01-30T02:29:02;1.98;;;0.52;;
20014;SDS011;61787;42.022;23.078;2024-01-30T02:30:04;0.60;;;0.10;;
20014;SDS011;61787;42.022;23.078;2024-01-30T02:31:06;2.10;;;0.30;;
20014;SDS011;61787;42.022;23.078;2024-01-30T02:32:08;1.13;;;0.30;;
20014;SDS011;61787;42.022;23.078;2024-01-30T02:33:09;1.70;;;0.32;;
20014;SDS011;61787;42.022;23.078;2024-01-30T02:34:11;1.20;;;0.32;;
20014;SDS011;61787;42.022;23.078;2024-01-30T02:35:13;2.63;;;0.45;;
20014;SDS011;61787;42.022;23.078;2024-01-30T02:36:15;1.25;;;0.90;;
20014;SDS011;61787;42.022;23.078;2024-01-30T02:37:17;2.40;;;0.40;;
20014;SDS011;61787;42.022;23.078;2024-01-30T02:38:19;2.25;;;0.10;;
20014;SDS011;61787;42.022;23.078;2024-01-30T02:39:20;1.77;;;0.20;;
20014;SDS011;61787;42.022;23.078;2024-01-30T02:40:22;1.00;;;0.20;;
20014;SDS011;61787;42.022;23.078;2024-01-30T02:41:23;1.17;;;0.17;;
20014;SDS011;61787;42.022;23.078;2024-01-30T02:42:25;1.13;;;0.20;;
20014;SDS011;61787;42.022;23.078;2024-01-30T02:43:27;1.58;;;0.90;;
20014;SDS011;61787;42.022;23.078;2024-01-30T02:44:28;4.60;;;0.68;;
20014;SDS011;61787;42.022;23.078;2024-01-30T02:45:30;1.70;;;0.70;;
20014;SDS011;61787;42.022;23.078;2024-01-30T02:46:32;0.73;;;0.10;;
20014;SDS011;61787;42.022;23.078;2024-01-30T02:47:33;2.35;;;0.43;;
20014;SDS011;61787;42.022;23.078;2024-01-30T02:48:35;1.08;;;0.30;;
20014;SDS011;61787;42.022;23.078;2024-01-30T02:49:36;1.60;;;0.30;;
20014;SDS011;61787;42.022;23.078;2024-01-30T02:50:38;2.85;;;0.50;;
20014;SDS011;61787;42.022;23.078;2024-01-30T02:51:40;3.30;;;0.52;;
20014;SDS011;61787;42.022;23.078;2024-01-30T02:52:41;2.65;;;0.32;;
20014;SDS011;61787;42.022;23.078;2024-01-30T02:53:45;2.13;;;0.77;;
20014;SDS011;61787;42.022;23.078;2024-01-30T02:54:46;4.22;;;0.60;;
20014;SDS011;61787;42.022;23.078;2024-01-30T02:55:48;1.15;;;0.22;;
20014;SDS011;61787;42.022;23.078;2024-01-30T02:56:50;2.75;;;0.82;;
20014;SDS011;61787;42.022;23.078;2024-01-30T02:57:51;6.45;;;1.20;;
20014;SDS011;61787;42.022;23.078;2024-01-30T02:58:53;5.18;;;1.08;;
20014;SDS011;61787;42.022;23.078;2024-01-30T02:59:54;2.08;;;0.50;;
20014;SDS011;61787;42.022;23.078;2024-01-30T03:00:56;4.35;;;0.60;;
20014;SDS011;61787;42.022;23.078;2024-01-30T03:01:58;4.15;;;1.27;;
20014;SDS011;61787;42.022;23.078;2024-01-30T03:03:00;3.35;;;0.70;;
20014;SDS011;61787;42.022;23.078;2024-01-30T03:04:01;3.95;;;0.98;;
20014;SDS011;61787;42.022;23.078;2024-01-30T03:05:04;1.98;;;0.50;;
20014;SDS011;61787;42.022;23.078;2024-01-30T03:06:06;1.30;;;0.43;;
20014;SDS011;61787;42.022;23.078;2024-01-30T03:07:08;3.22;;;0.85;;
20014;SDS011;61787;42.022;23.078;2024-01-30T03:08:10;4.25;;;1.02;;
20014;SDS011;61787;42.022;23.078;2024-01-30T03:09:12;2.58;;;0.50;;
20014;SDS011;61787;42.022;23.078;2024-01-30T03:10:14;1.98;;;0.70;;
20014;SDS011;61787;42.022;23.078;2024-01-30T03:11:16;2.88;;;0.50;;
20014;SDS011;61787;42.022;23.078;2024-01-30T03:12:18;3.85;;;1.10;;
20014;SDS011;61787;42.022;23.078;2024-01-30T03:13:19;2.90;;;1.58;;
20014;SDS011;61787;42.022;23.078;2024-01-30T03:14:21;4.13;;;1.00;;
20014;SDS011;61787;42.022;23.078;2024-01-30T03:15:23;3.83;;;1.20;;
20014;SDS011;61787;42.022;23.078;2024-01-30T03:16:24;3.78;;;1.50;;
20014;SDS011;61787;42.022;23.078;2024-01-30T03:17:26;5.60;;;1.42;;
20014;SDS011;61787;42.022;23.078;2024-01-30T03:18:28;5.97;;;1.50;;
20014;SDS011;61787;42.022;23.078;2024-01-30T03:19:30;5.63;;;1.45;;
20014;SDS011;61787;42.022;23.078;2024-01-30T03:20:31;4.57;;;2.42;;
20014;SDS011;61787;42.022;23.078;2024-01-30T03:21:33;5.35;;;2.03;;
20014;SDS011;61787;42.022;23.078;2024-01-30T03:22:35;3.42;;;1.67;;
20014;SDS011;61787;42.022;23.078;2024-01-30T03:23:36;4.05;;;1.88;;
20014;SDS011;61787;42.022;23.078;2024-01-30T03:24:38;4.85;;;1.27;;
20014;SDS011;61787;42.022;23.078;2024-01-30T03:25:40;4.20;;;1.73;;
20014;SDS011;61787;42.022;23.078;2024-01-30T03:26:41;2.88;;;1.05;;
20014;SDS011;61787;42.022;23.078;2024-01-30T03:27:43;5.90;;;1.42;;
20014;SDS011;61787;42.022;23.078;2024-01-30T03:28:45;4.32;;;1.80;;
20014;SDS011;61787;42.022;23.078;2024-01-30T03:29:46;4.20;;;1.80;;
20014;SDS011;61787;42.022;23.078;2024-01-30T03:30:48;3.00;;;1.27;;
20014;SDS011;61787;42.022;23.078;2024-01-30T03:31:49;4.88;;;1.23;;
20014;SDS011;61787;42.022;23.078;2024-01-30T03:32:51;5.50;;;2.28;;
20014;SDS011;61787;42.022;23.078;2024-01-30T03:33:53;3.35;;;1.27;;
20014;SDS011;61787;42.022;23.078;2024-01-30T03:34:55;3.67;;;2.00;;
20014;SDS011;61787;42.022;23.078;2024-01-30T03:35:56;3.60;;;1.20;;
20014;SDS011;61787;42.022;23.078;2024-01-30T03:36:58;3.30;;;1.85;;
20014;SDS011;61787;42.022;23.078;2024-01-30T03:38:00;4.03;;;1.45;;
20014;SDS011;61787;42.022;23.078;2024-01-30T03:39:01;4.55;;;1.60;;
20014;SDS011;61787;42.022;23.078;2024-01-30T03:40:03;3.55;;;1.58;;
20014;SDS011;61787;42.022;23.078;2024-01-30T03:41:07;3.92;;;1.35;;
20014;SDS011;61787;42.022;23.078;2024-01-30T03:42:09;5.28;;;1.50;;
20014;SDS011;61787;42.022;23.078;2024-01-30T03:43:11;5.82;;;1.52;;
20014;SDS011;61787;42.022;23.078;2024-01-30T03:44:12;5.10;;;1.55;;
20014;SDS011;61787;42.022;23.078;2024-01-30T03:45:14;4.00;;;1.67;;
20014;SDS011;61787;42.022;23.078;2024-01-30T03:46:15;6.68;;;1.65;;
20014;SDS011;61787;42.022;23.078;2024-01-30T03:47:17;9.35;;;1.80;;
20014;SDS011;61787;42.022;23.078;2024-01-30T03:48:20;6.20;;;1.63;;
20014;SDS011;61787;42.022;23.078;2024-01-30T03:49:22;5.07;;;1.88;;
20014;SDS011;61787;42.022;23.078;2024-01-30T03:50:24;4.10;;;1.45;;
20014;SDS011;61787;42.022;23.078;2024-01-30T03:51:25;3.85;;;1.98;;
20014;SDS011;61787;42.022;23.078;2024-01-30T03:52:27;5.72;;;1.63;;
20014;SDS011;61787;42.022;23.078;2024-01-30T03:53:29;4.55;;;1.60;;
20014;SDS011;61787;42.022;23.078;2024-01-30T03:54:31;5.40;;;1.80;;
20014;SDS011;61787;42.022;23.078;2024-01-30T03:55:32;7.22;;;2.20;;
20014;SDS011;61787;42.022;23.078;2024-01-30T03:56:34;39.88;;;9.52;;
20014;SDS011;61787;42.022;23.078;2024-01-30T03:57:36;17.52;;;3.92;;
20014;SDS011;61787;42.022;23.078;2024-01-30T03:58:37;10.93;;;2.75;;
20014;SDS011;61787;42.022;23.078;2024-01-30T03:59:41;9.27;;;2.88;;
20014;SDS011;61787;42.022;23.078;2024-01-30T04:00:43;4.03;;;2.13;;
20014;SDS011;61787;42.022;23.078;2024-01-30T04:01:46;5.07;;;1.73;;
20014;SDS011;61787;42.022;23.078;2024-01-30T04:02:48;4.47;;;1.83;;
20014;SDS011;61787;42.022;23.078;2024-01-30T04:03:52;4.78;;;1.65;;
20014;SDS011;61787;42.022;23.078;2024-01-30T04:04:54;5.70;;;1.83;;
20014;SDS011;61787;42.022;23.078;2024-01-30T04:05:55;8.40;;;4.43;;
20014;SDS011;61787;42.022;23.078;2024-01-30T04:06:57;8.60;;;4.18;;
20014;SDS011;61787;42.022;23.078;2024-01-30T04:07:59;8.15;;;3.95;;
20014;SDS011;61787;42.022;23.078;2024-01-30T04:09:01;8.95;;;3.67;;
20014;SDS011;61787;42.022;23.078;2024-01-30T04:10:02;9.10;;;3.78;;
20014;SDS011;61787;42.022;23.078;2024-01-30T04:11:07;5.78;;;3.55;;
20014;SDS011;61787;42.022;23.078;2024-01-30T04:12:08;6.63;;;3.05;;
20014;SDS011;61787;42.022;23.078;2024-01-30T04:13:10;7.60;;;3.25;;
20014;SDS011;61787;42.022;23.078;2024-01-30T04:14:13;4.57;;;2.58;;
20014;SDS011;61787;42.022;23.078;2024-01-30T04:15:14;7.32;;;2.50;;
20014;SDS011;61787;42.022;23.078;2024-01-30T04:16:20;5.85;;;2.72;;
20014;SDS011;61787;42.022;23.078;2024-01-30T04:17:23;6.80;;;2.47;;
20014;SDS011;61787;42.022;23.078;2024-01-30T04:18:25;4.55;;;2.25;;
20014;SDS011;61787;42.022;23.078;2024-01-30T04:19:27;6.05;;;3.10;;
20014;SDS011;61787;42.022;23.078;2024-01-30T04:20:29;5.53;;;2.85;;
20014;SDS011;61787;42.022;23.078;2024-01-30T04:21:31;3.70;;;1.98;;
20014;SDS011;61787;42.022;23.078;2024-01-30T04:22:32;3.92;;;1.52;;
20014;SDS011;61787;42.022;23.078;2024-01-30T04:23:34;2.83;;;1.48;;
20014;SDS011;61787;42.022;23.078;2024-01-30T04:24:35;3.72;;;1.35;;
20014;SDS011;61787;42.022;23.078;2024-01-30T04:25:37;4.20;;;1.13;;
20014;SDS011;61787;42.022;23.078;2024-01-30T04:26:39;4.22;;;1.20;;
20014;SDS011;61787;42.022;23.078;2024-01-30T04:27:40;6.18;;;1.50;;
20014;SDS011;61787;42.022;23.078;2024-01-30T04:28:44;3.72;;;1.05;;
20014;SDS011;61787;42.022;23.078;2024-01-30T04:29:46;2.45;;;0.80;;
20014;SDS011;61787;42.022;23.078;2024-01-30T04:30:47;2.17;;;0.80;;
20014;SDS011;61787;42.022;23.078;2024-01-30T04:31:49;3.03;;;0.77;;
20014;SDS011;61787;42.022;23.078;2024-01-30T04:32:51;4.03;;;0.70;;
20014;SDS011;61787;42.022;23.078;2024-01-30T04:33:52;1.80;;;0.65;;
20014;SDS011;61787;42.022;23.078;2024-01-30T04:34:54;2.60;;;0.60;;
20014;SDS011;61787;42.022;23.078;2024-01-30T04:35:56;3.33;;;0.55;;
20014;SDS011;61787;42.022;23.078;2024-01-30T04:36:58;1.67;;;0.50;;
20014;SDS011;61787;42.022;23.078;2024-01-30T04:37:59;2.72;;;0.75;;
20014;SDS011;61787;42.022;23.078;2024-01-30T04:39:01;3.35;;;0.57;;
20014;SDS011;61787;42.022;23.078;2024-01-30T04:40:02;2.72;;;0.50;;
20014;SDS011;61787;42.022;23.078;2024-01-30T04:41:04;2.33;;;0.52;;
20014;SDS011;61787;42.022;23.078;2024-01-30T04:42:06;1.90;;;0.63;;
20014;SDS011;61787;42.022;23.078;2024-01-30T04:43:10;3.65;;;0.55;;
20014;SDS011;61787;42.022;23.078;2024-01-30T04:44:11;2.47;;;1.00;;
20014;SDS011;61787;42.022;23.078;2024-01-30T04:45:13;3.65;;;1.10;;
20014;SDS011;61787;42.022;23.078;2024-01-30T04:46:14;4.20;;;0.75;;
20014;SDS011;61787;42.022;23.078;2024-01-30T04:47:16;3.17;;;0.98;;
20014;SDS011;61787;42.022;23.078;2024-01-30T04:48:18;1.95;;;0.60;;
20014;SDS011;61787;42.022;23.078;2024-01-30T04:49:20;3.30;;;0.57;;
20014;SDS011;61787;42.022;23.078;2024-01-30T04:50:22;4.57;;;1.33;;
20014;SDS011;61787;42.022;23.078;2024-01-30T04:51:24;3.65;;;1.05;;
20014;SDS011;61787;42.022;23.078;2024-01-30T04:52:26;4.85;;;0.80;;
20014;SDS011;61787;42.022;23.078;2024-01-30T04:53:29;3.63;;;1.13;;
20014;SDS011;61787;42.022;23.078;2024-01-30T04:54:31;3.53;;;1.25;;
20014;SDS011;61787;42.022;23.078;2024-01-30T04:55:33;1.95;;;1.02;;
20014;SDS011;61787;42.022;23.078;2024-01-30T04:56:36;4.25;;;1.40;;
20014;SDS011;61787;42.022;23.078;2024-01-30T04:57:38;2.95;;;0.90;;
20014;SDS011;61787;42.022;23.078;2024-01-30T04:58:40;9.90;;;1.70;;
20014;SDS011;61787;42.022;23.078;2024-01-30T04:59:42;4.60;;;1.70;;
20014;SDS011;61787;42.022;23.078;2024-01-30T05:00:43;6.45;;;2.20;;
20014;SDS011;61787;42.022;23.078;2024-01-30T05:01:47;7.85;;;2.60;;
20014;SDS011;61787;42.022;23.078;2024-01-30T05:02:49;7.47;;;2.90;;
20014;SDS011;61787;42.022;23.078;2024-01-30T05:03:51;4.85;;;1.58;;
20014;SDS011;61787;42.022;23.078;2024-01-30T05:04:52;4.05;;;1.92;;
20014;SDS011;61787;42.022;23.078;2024-01-30T05:05:54;4.80;;;2.30;;
20014;SDS011;61787;42.022;23.078;2024-01-30T05:06:56;6.75;;;2.42;;
20014;SDS011;61787;42.022;23.078;2024-01-30T05:07:57;6.18;;;2.03;;
20014;SDS011;61787;42.022;23.078;2024-01-30T05:08:59;2.60;;;0.82;;
20014;SDS011;61787;42.022;23.078;2024-01-30T05:10:01;4.97;;;2.00;;
20014;SDS011;61787;42.022;23.078;2024-01-30T05:11:07;4.03;;;1.55;;
20014;SDS011;61787;42.022;23.078;2024-01-30T05:12:08;10.13;;;2.63;;
20014;SDS011;61787;42.022;23.078;2024-01-30T05:13:10;11.23;;;2.97;;
20014;SDS011;61787;42.022;23.078;2024-01-30T05:14:12;15.00;;;4.55;;
20014;SDS011;61787;42.022;23.078;2024-01-30T05:15:16;12.18;;;3.45;;
20014;SDS011;61787;42.022;23.078;2024-01-30T05:16:17;7.68;;;3.03;;
20014;SDS011;61787;42.022;23.078;2024-01-30T05:17:19;11.18;;;3.50;;
20014;SDS011;61787;42.022;23.078;2024-01-30T05:18:21;12.02;;;4.22;;
20014;SDS011;61787;42.022;23.078;2024-01-30T05:19:23;40.42;;;13.02;;
20014;SDS011;61787;42.022;23.078;2024-01-30T05:20:25;28.80;;;9.77;;
20014;SDS011;61787;42.022;23.078;2024-01-30T05:21:29;14.52;;;4.88;;
20014;SDS011;61787;42.022;23.078;2024-01-30T05:22:30;9.45;;;3.22;;
20014;SDS011;61787;42.022;23.078;2024-01-30T05:23:32;8.05;;;3.20;;
20014;SDS011;61787;42.022;23.078;2024-01-30T05:24:34;7.43;;;2.70;;
20014;SDS011;61787;42.022;23.078;2024-01-30T05:25:36;8.00;;;2.95;;
20014;SDS011;61787;42.022;23.078;2024-01-30T05:26:37;4.70;;;2.17;;
20014;SDS011;61787;42.022;23.078;2024-01-30T05:27:39;4.88;;;1.70;;
20014;SDS011;61787;42.022;23.078;2024-01-30T05:28:40;5.70;;;2.22;;
20014;SDS011;61787;42.022;23.078;2024-01-30T05:29:42;6.80;;;2.95;;
20014;SDS011;61787;42.022;23.078;2024-01-30T05:30:44;19.10;;;6.47;;
20014;SDS011;61787;42.022;23.078;2024-01-30T05:31:45;21.42;;;7.05;;
20014;SDS011;61787;42.022;23.078;2024-01-30T05:32:47;17.70;;;6.07;;
20014;SDS011;61787;42.022;23.078;2024-01-30T05:33:49;29.45;;;9.02;;
20014;SDS011;61787;42.022;23.078;2024-01-30T05:34:50;81.45;;;20.42;;
20014;SDS011;61787;42.022;23.078;2024-01-30T05:35:52;19.67;;;6.95;;
20014;SDS011;61787;42.022;23.078;2024-01-30T05:36:55;12.55;;;5.25;;
20014;SDS011;61787;42.022;23.078;2024-01-30T05:37:57;10.95;;;5.75;;
20014;SDS011;61787;42.022;23.078;2024-01-30T05:38:59;21.38;;;8.43;;
20014;SDS011;61787;42.022;23.078;2024-01-30T05:40:00;38.38;;;12.05;;
20014;SDS011;61787;42.022;23.078;2024-01-30T05:41:02;36.58;;;9.48;;
20014;SDS011;61787;42.022;23.078;2024-01-30T05:42:04;20.38;;;7.20;;
20014;SDS011;61787;42.022;23.078;2024-01-30T05:43:05;8.48;;;3.33;;
20014;SDS011;61787;42.022;23.078;2024-01-30T05:44:07;14.40;;;6.47;;
20014;SDS011;61787;42.022;23.078;2024-01-30T05:45:09;14.80;;;5.22;;
20014;SDS011;61787;42.022;23.078;2024-01-30T05:46:10;16.52;;;4.95;;
20014;SDS011;61787;42.022;23.078;2024-01-30T05:47:12;14.00;;;4.60;;
20014;SDS011;61787;42.022;23.078;2024-01-30T05:48:14;9.05;;;4.80;;
20014;SDS011;61787;42.022;23.078;2024-01-30T05:49:15;12.15;;;4.55;;
20014;SDS011;61787;42.022;23.078;2024-01-30T05:50:17;20.80;;;6.70;;
20014;SDS011;61787;42.022;23.078;2024-01-30T05:51:19;10.82;;;4.63;;
20014;SDS011;61787;42.022;23.078;2024-01-30T05:52:20;9.93;;;3.88;;
20014;SDS011;61787;42.022;23.078;2024-01-30T05:53:22;13.05;;;3.88;;
20014;SDS011;61787;42.022;23.078;2024-01-30T05:54:24;8.07;;;3.25;;
20014;SDS011;61787;42.022;23.078;2024-01-30T05:55:25;11.13;;;3.17;;
20014;SDS011;61787;42.022;23.078;2024-01-30T05:56:27;7.28;;;2.72;;
20014;SDS011;61787;42.022;23.078;2024-01-30T05:57:29;9.00;;;3.00;;
20014;SDS011;61787;42.022;23.078;2024-01-30T05:58:31;6.82;;;2.65;;
20014;SDS011;61787;42.022;23.078;2024-01-30T05:59:33;6.57;;;3.28;;
20014;SDS011;61787;42.022;23.078;2024-01-30T06:00:35;7.78;;;2.80;;
20014;SDS011;61787;42.022;23.078;2024-01-30T06:01:37;6.15;;;2.15;;
20014;SDS011;61787;42.022;23.078;2024-01-30T06:02:39;5.93;;;2.60;;
20014;SDS011;61787;42.022;23.078;2024-01-30T06:03:41;7.28;;;3.33;;
20014;SDS011;61787;42.022;23.078;2024-01-30T06:04:44;8.05;;;3.65;;
20014;SDS011;61787;42.022;23.078;2024-01-30T06:05:46;9.02;;;4.57;;
20014;SDS011;61787;42.022;23.078;2024-01-30T06:06:48;9.55;;;4.15;;
20014;SDS011;61787;42.022;23.078;2024-01-30T06:07:49;12.23;;;4.53;;